createdAt,value
2018-07-05T00:00:05.730Z,4.47
2018-07-05T00:01:20.616Z,4.60
2018-07-05T00:02:35.296Z,4.20
2018-07-05T00:03:50.107Z,4.77
2018-07-05T00:05:04.713Z,4.17
2018-07-05T00:06:19.500Z,4.37
2018-07-05T00:07:34.291Z,4.47
2018-07-05T00:08:49.075Z,4.63
2018-07-05T00:10:03.809Z,4.67
2018-07-05T00:11:18.586Z,4.67
2018-07-05T00:12:33.304Z,4.80
2018-07-05T00:13:48.065Z,4.33
2018-07-05T00:15:02.907Z,3.97
2018-07-05T00:16:17.750Z,4.57
2018-07-05T00:17:32.579Z,4.13
2018-07-05T00:18:48.747Z,4.33
2018-07-05T00:20:03.521Z,3.90
2018-07-05T00:21:18.236Z,4.80
2018-07-05T00:22:33.105Z,4.10
2018-07-05T00:23:47.956Z,4.67
2018-07-05T00:25:02.693Z,4.23
2018-07-05T00:26:17.533Z,4.70
2018-07-05T00:27:32.348Z,4.07
2018-07-05T00:28:47.146Z,4.77
2018-07-05T00:30:01.749Z,4.40
2018-07-05T00:31:16.508Z,4.43
2018-07-05T00:32:31.274Z,4.40
2018-07-05T00:33:46.084Z,4.10
2018-07-05T00:35:00.775Z,4.30
2018-07-05T00:36:15.578Z,4.17
2018-07-05T00:37:30.387Z,3.87
2018-07-05T00:38:45.035Z,4.47
2018-07-05T00:39:59.825Z,4.23
2018-07-05T00:41:14.689Z,4.20
2018-07-05T00:42:29.530Z,4.63
2018-07-05T00:43:44.275Z,3.83
2018-07-05T00:44:59.133Z,4.13
2018-07-05T00:46:13.882Z,4.10
2018-07-05T00:47:28.364Z,3.93
2018-07-05T00:48:43.228Z,3.97
2018-07-05T00:49:58.050Z,4.27
2018-07-05T00:51:12.958Z,3.93
2018-07-05T00:52:27.778Z,3.80
2018-07-05T00:53:42.636Z,3.80
2018-07-05T00:54:57.437Z,4.10
2018-07-05T00:56:12.120Z,3.90
2018-07-05T00:57:26.848Z,4.37
2018-07-05T00:58:41.669Z,4.20
2018-07-05T00:59:56.424Z,3.60
2018-07-05T01:01:11.194Z,4.07
2018-07-05T01:02:25.948Z,4.47
2018-07-05T01:03:40.764Z,3.53
2018-07-05T01:04:55.596Z,3.70
2018-07-05T01:06:10.418Z,3.90
2018-07-05T01:07:25.177Z,3.70
2018-07-05T01:08:39.910Z,4.87
2018-07-05T01:09:54.634Z,4.00
2018-07-05T01:11:09.426Z,3.93
2018-07-05T01:12:24.102Z,4.00
2018-07-05T01:13:38.831Z,3.80
2018-07-05T01:14:53.507Z,4.00
2018-07-05T01:16:08.225Z,3.77
2018-07-05T01:17:22.984Z,3.83
2018-07-05T01:18:38.016Z,3.50
2018-07-05T01:19:53.639Z,4.20
2018-07-05T01:21:08.392Z,3.97
2018-07-05T01:22:23.297Z,4.00
2018-07-05T01:23:38.095Z,4.30
2018-07-05T01:24:52.760Z,3.67
2018-07-05T01:26:07.510Z,3.57
2018-07-05T01:27:22.316Z,3.77
2018-07-05T01:28:37.064Z,4.27
2018-07-05T01:29:51.746Z,3.90
2018-07-05T01:31:06.506Z,4.23
2018-07-05T01:32:21.296Z,3.53
2018-07-05T01:33:36.069Z,3.77
2018-07-05T01:34:50.944Z,3.80
2018-07-05T01:36:05.795Z,3.63
2018-07-05T01:37:20.539Z,4.13
2018-07-05T01:38:35.327Z,3.63
2018-07-05T01:39:50.060Z,3.70
2018-07-05T01:41:04.891Z,3.80
2018-07-05T01:42:19.524Z,3.17
2018-07-05T01:43:34.246Z,3.30
2018-07-05T01:44:49.096Z,3.20
2018-07-05T01:46:03.847Z,3.50
2018-07-05T01:47:18.620Z,3.20
2018-07-05T01:48:33.456Z,3.27
2018-07-05T01:49:48.343Z,4.07
2018-07-05T01:51:03.251Z,3.50
2018-07-05T01:52:17.871Z,3.87
2018-07-05T01:53:32.608Z,2.93
2018-07-05T01:54:47.506Z,3.93
2018-07-05T01:56:02.335Z,3.70
2018-07-05T01:57:17.112Z,3.73
2018-07-05T01:58:31.916Z,3.63
2018-07-05T01:59:46.861Z,3.47
2018-07-05T02:01:01.608Z,3.20
2018-07-05T02:02:16.314Z,3.67
2018-07-05T02:03:31.091Z,3.63
2018-07-05T02:04:45.940Z,4.20
2018-07-05T02:06:00.480Z,3.77
2018-07-05T02:07:15.248Z,3.47
2018-07-05T02:08:30.056Z,3.60
2018-07-05T02:09:44.865Z,3.20
2018-07-05T02:10:59.623Z,3.00
2018-07-05T02:12:14.360Z,4.27
2018-07-05T02:13:29.146Z,3.13
2018-07-05T02:14:43.900Z,3.10
2018-07-05T02:15:58.649Z,3.10
2018-07-05T02:17:13.444Z,3.50
2018-07-05T02:18:28.105Z,3.50
2018-07-05T02:19:42.866Z,3.00
2018-07-05T02:20:57.664Z,3.63
2018-07-05T02:22:12.237Z,3.20
2018-07-05T02:23:27.120Z,3.40
2018-07-05T02:24:41.716Z,3.73
2018-07-05T02:25:56.608Z,3.73
2018-07-05T02:27:11.192Z,3.40
2018-07-05T02:28:25.977Z,3.30
2018-07-05T02:29:40.723Z,3.50
2018-07-05T02:30:55.445Z,3.50
2018-07-05T02:32:10.080Z,3.10
2018-07-05T02:33:24.792Z,3.67
2018-07-05T02:34:39.542Z,3.27
2018-07-05T02:35:54.393Z,2.97
2018-07-05T02:37:13.359Z,3.90
2018-07-05T02:38:28.111Z,3.30
2018-07-05T02:39:49.020Z,3.97
2018-07-05T02:41:04.672Z,4.03
2018-07-05T02:42:19.508Z,3.10
2018-07-05T02:43:34.266Z,3.40
2018-07-05T02:44:49.068Z,3.23
2018-07-05T02:46:03.895Z,3.60
2018-07-05T02:47:18.511Z,3.10
2018-07-05T02:48:33.379Z,3.27
2018-07-05T02:49:48.066Z,3.33
2018-07-05T02:51:02.853Z,3.13
2018-07-05T02:52:17.673Z,3.40
2018-07-05T02:53:32.434Z,3.27
2018-07-05T02:54:47.186Z,3.40
2018-07-05T02:56:01.968Z,3.30
2018-07-05T02:57:16.780Z,3.43
2018-07-05T02:58:31.572Z,2.93
2018-07-05T02:59:46.286Z,2.97
2018-07-05T03:01:01.101Z,3.33
2018-07-05T03:02:15.868Z,3.10
2018-07-05T03:03:30.712Z,2.60
2018-07-05T03:04:45.348Z,3.03
2018-07-05T03:06:00.043Z,3.20
2018-07-05T03:07:14.867Z,3.27
2018-07-05T03:08:29.682Z,3.10
2018-07-05T03:09:44.789Z,3.10
2018-07-05T03:10:59.413Z,3.50
2018-07-05T03:12:14.481Z,2.83
2018-07-05T03:13:29.232Z,3.53
2018-07-05T03:14:44.004Z,3.00
2018-07-05T03:15:58.848Z,3.10
2018-07-05T03:17:13.505Z,3.20
2018-07-05T03:18:28.256Z,2.70
2018-07-05T03:19:43.017Z,2.90
2018-07-05T03:20:57.727Z,2.80
2018-07-05T03:22:12.604Z,2.83
2018-07-05T03:23:27.267Z,2.87
2018-07-05T03:24:42.072Z,3.00
2018-07-05T03:25:56.785Z,3.40
2018-07-05T03:27:11.683Z,3.03
2018-07-05T03:28:26.390Z,2.87
2018-07-05T03:29:41.065Z,2.93
2018-07-05T03:30:55.780Z,3.20
2018-07-05T03:32:10.571Z,2.83
2018-07-05T03:33:25.330Z,3.10
2018-07-05T03:34:40.065Z,2.80
2018-07-05T03:35:54.882Z,2.90
2018-07-05T03:37:09.649Z,3.10
2018-07-05T03:38:24.401Z,3.67
2018-07-05T03:39:39.200Z,3.20
2018-07-05T03:40:53.966Z,3.00
2018-07-05T03:42:08.704Z,3.13
2018-07-05T03:43:23.501Z,3.10
2018-07-05T03:44:38.280Z,2.90
2018-07-05T03:45:53.068Z,3.10
2018-07-05T03:47:07.801Z,3.13
2018-07-05T03:48:22.556Z,2.93
2018-07-05T03:49:37.296Z,2.80
2018-07-05T03:50:51.953Z,3.00
2018-07-05T03:52:06.698Z,2.83
2018-07-05T03:53:21.424Z,2.80
2018-07-05T03:54:36.151Z,3.13
2018-07-05T03:55:50.812Z,3.10
2018-07-05T03:57:05.556Z,3.03
2018-07-05T03:58:20.389Z,3.20
2018-07-05T03:59:35.168Z,2.87
2018-07-05T04:00:49.960Z,2.40
2018-07-05T04:02:04.644Z,2.93
2018-07-05T04:03:19.402Z,2.87
2018-07-05T04:04:34.102Z,2.90
2018-07-05T04:05:48.729Z,2.80
2018-07-05T04:07:04.199Z,3.10
2018-07-05T04:08:18.984Z,3.20
2018-07-05T04:09:33.832Z,2.77
2018-07-05T04:10:48.622Z,2.77
2018-07-05T04:12:03.444Z,3.10
2018-07-05T04:13:18.301Z,3.10
2018-07-05T04:14:33.050Z,2.60
2018-07-05T04:15:47.899Z,2.80
2018-07-05T04:17:02.467Z,3.10
2018-07-05T04:18:17.131Z,2.60
2018-07-05T04:19:31.875Z,2.70
2018-07-05T04:20:46.706Z,2.77
2018-07-05T04:22:01.449Z,2.97
2018-07-05T04:23:16.056Z,2.40
2018-07-05T04:24:30.634Z,3.00
2018-07-05T04:25:45.219Z,3.10
2018-07-05T04:27:00.106Z,4.27
2018-07-05T04:28:14.868Z,3.57
2018-07-05T04:29:30.590Z,3.40
2018-07-05T04:30:45.326Z,3.60
2018-07-05T04:32:00.142Z,4.90
2018-07-05T04:33:14.846Z,4.23
2018-07-05T04:34:29.581Z,5.13
2018-07-05T04:35:48.247Z,4.10
2018-07-05T04:37:03.016Z,5.13
2018-07-05T04:38:17.909Z,4.50
2018-07-05T04:39:32.668Z,5.03
2018-07-05T04:40:47.439Z,5.00
2018-07-05T04:42:02.130Z,4.90
2018-07-05T04:43:16.972Z,5.33
2018-07-05T04:44:31.556Z,5.40
2018-07-05T04:45:46.378Z,6.83
2018-07-05T04:47:01.065Z,8.50
2018-07-05T04:48:15.821Z,6.47
2018-07-05T04:49:30.484Z,5.77
2018-07-05T04:50:45.265Z,6.40
2018-07-05T04:51:59.991Z,6.00
2018-07-05T04:53:14.533Z,6.37
2018-07-05T04:54:29.277Z,5.77
2018-07-05T04:55:44.034Z,5.90
2018-07-05T04:56:58.816Z,5.73
2018-07-05T04:58:13.680Z,5.27
2018-07-05T04:59:28.465Z,6.10
2018-07-05T05:00:43.146Z,5.70
2018-07-05T05:01:57.928Z,6.07
2018-07-05T05:03:12.645Z,6.00
2018-07-05T05:04:27.369Z,6.00
2018-07-05T05:05:42.150Z,5.27
2018-07-05T05:06:56.888Z,5.47
2018-07-05T05:08:11.860Z,5.37
2018-07-05T05:09:26.537Z,5.23
2018-07-05T05:10:41.272Z,5.70
2018-07-05T05:11:56.158Z,5.40
2018-07-05T05:13:11.044Z,5.40
2018-07-05T05:14:25.923Z,5.63
2018-07-05T05:15:40.903Z,6.03
2018-07-05T05:16:55.508Z,6.10
2018-07-05T05:18:10.376Z,5.77
2018-07-05T05:19:25.126Z,5.90
2018-07-05T05:20:39.862Z,5.37
2018-07-05T05:21:54.587Z,6.47
2018-07-05T05:23:09.567Z,5.63
2018-07-05T05:24:24.268Z,5.60
2018-07-05T05:25:38.975Z,5.60
2018-07-05T05:26:53.646Z,5.73
2018-07-05T05:28:08.425Z,5.67
2018-07-05T05:29:23.264Z,5.60
2018-07-05T05:30:38.098Z,6.53
2018-07-05T05:31:52.930Z,5.93
2018-07-05T05:33:07.821Z,6.03
2018-07-05T05:34:22.444Z,5.83
2018-07-05T05:35:37.196Z,5.80
2018-07-05T05:36:52.068Z,5.67
2018-07-05T05:38:06.803Z,5.33
2018-07-05T05:39:21.723Z,5.80
2018-07-05T05:40:36.368Z,6.00
2018-07-05T05:41:51.300Z,6.47
2018-07-05T05:43:06.076Z,5.80
2018-07-05T05:44:20.644Z,5.87
2018-07-05T05:45:35.350Z,5.73
2018-07-05T05:46:50.147Z,5.70
2018-07-05T05:48:05.290Z,6.03
2018-07-05T05:49:20.056Z,4.70
2018-07-05T05:50:34.810Z,5.87
2018-07-05T05:51:49.568Z,5.20
2018-07-05T05:53:04.332Z,5.50
2018-07-05T05:54:19.461Z,5.60
2018-07-05T05:55:34.696Z,5.90
2018-07-05T05:56:49.412Z,6.20
2018-07-05T05:58:04.073Z,6.20
2018-07-05T05:59:18.718Z,6.40
2018-07-05T06:00:33.420Z,5.60
2018-07-05T06:01:48.573Z,6.73
2018-07-05T06:03:03.611Z,5.90
2018-07-05T06:04:18.360Z,6.10
2018-07-05T06:05:33.103Z,6.40
2018-07-05T06:06:47.815Z,6.87
2018-07-05T06:08:02.485Z,6.50
2018-07-05T06:09:17.249Z,7.30
2018-07-05T06:10:31.966Z,6.67
2018-07-05T06:11:46.825Z,6.33
2018-07-05T06:13:01.598Z,6.33
2018-07-05T06:14:16.365Z,6.57
2018-07-05T06:15:31.201Z,6.20
2018-07-05T06:16:46.048Z,6.50
2018-07-05T06:18:00.910Z,6.63
2018-07-05T06:19:15.724Z,6.67
2018-07-05T06:20:30.587Z,5.97
2018-07-05T06:21:45.290Z,6.60
2018-07-05T06:23:00.203Z,5.60
2018-07-05T06:24:14.895Z,6.27
2018-07-05T06:25:29.784Z,5.67
2018-07-05T06:26:44.486Z,5.40
2018-07-05T06:27:59.316Z,6.37
2018-07-05T06:29:14.442Z,6.23
2018-07-05T06:30:29.156Z,6.30
2018-07-05T06:31:44.108Z,5.90
2018-07-05T06:32:58.727Z,6.23
2018-07-05T06:34:13.680Z,5.80
2018-07-05T06:35:28.694Z,5.80
2018-07-05T06:36:43.633Z,5.60
2018-07-05T06:37:58.328Z,6.57
2018-07-05T06:39:13.095Z,6.07
2018-07-05T06:40:27.918Z,6.10
2018-07-05T06:41:42.760Z,6.00
2018-07-05T06:42:57.612Z,6.23
2018-07-05T06:44:12.360Z,6.20
2018-07-05T06:45:27.192Z,6.20
2018-07-05T06:46:41.895Z,5.57
2018-07-05T06:47:56.589Z,6.07
2018-07-05T06:49:11.384Z,6.50
2018-07-05T06:50:26.100Z,5.80
2018-07-05T06:51:40.881Z,6.30
2018-07-05T06:52:55.666Z,6.03
2018-07-05T06:54:10.415Z,6.23
2018-07-05T06:55:25.141Z,6.33
2018-07-05T06:56:39.902Z,6.10
2018-07-05T06:57:54.744Z,6.20
2018-07-05T06:59:09.585Z,6.50
2018-07-05T07:00:24.425Z,5.90
2018-07-05T07:01:39.200Z,5.97
2018-07-05T07:02:53.941Z,5.67
2018-07-05T07:04:08.567Z,6.10
2018-07-05T07:05:23.288Z,6.60
2018-07-05T07:06:38.164Z,5.90
2018-07-05T07:07:52.746Z,6.23
2018-07-05T07:09:07.515Z,6.17
2018-07-05T07:10:22.481Z,6.73
2018-07-05T07:11:37.096Z,7.00
2018-07-05T07:12:51.768Z,5.87
2018-07-05T07:14:06.574Z,5.87
2018-07-05T07:15:21.340Z,5.87
2018-07-05T07:16:36.140Z,5.90
2018-07-05T07:17:50.894Z,6.30
2018-07-05T07:19:05.651Z,6.10
2018-07-05T07:20:20.397Z,6.57
2018-07-05T07:21:35.123Z,6.03
2018-07-05T07:22:49.815Z,5.60
2018-07-05T07:24:04.698Z,6.30
2018-07-05T07:25:19.621Z,5.80
2018-07-05T07:26:34.379Z,6.17
2018-07-05T07:27:49.108Z,5.97
2018-07-05T07:29:03.937Z,6.10
2018-07-05T07:30:18.574Z,6.10
2018-07-05T07:31:33.383Z,5.60
2018-07-05T07:32:48.152Z,7.40
2018-07-05T07:34:02.804Z,7.63
2018-07-05T07:35:17.560Z,7.60
2018-07-05T07:36:32.351Z,7.30
2018-07-05T07:37:47.108Z,7.50
2018-07-05T07:39:01.821Z,8.60
2018-07-05T07:40:16.507Z,8.53
2018-07-05T07:41:31.319Z,7.43
2018-07-05T07:42:33.612Z,7.97
2018-07-05T07:43:35.865Z,7.97
2018-07-05T07:44:38.191Z,9.40
2018-07-05T07:45:40.694Z,8.50
2018-07-05T07:46:43.068Z,7.80
2018-07-05T07:47:45.343Z,8.23
2018-07-05T07:48:47.598Z,9.13
2018-07-05T07:49:49.860Z,7.70
2018-07-05T07:50:52.418Z,8.40
2018-07-05T07:51:54.654Z,8.47
2018-07-05T07:52:56.901Z,7.73
2018-07-05T07:53:59.260Z,7.57
2018-07-05T07:55:01.535Z,8.50
2018-07-05T07:56:03.780Z,8.40
2018-07-05T07:57:06.017Z,8.10
2018-07-05T07:58:08.306Z,7.83
2018-07-05T07:59:10.560Z,8.40
2018-07-05T08:00:12.847Z,8.93
2018-07-05T08:01:15.144Z,7.10
2018-07-05T08:02:17.384Z,8.20
2018-07-05T08:03:19.619Z,8.73
2018-07-05T08:04:21.872Z,8.47
2018-07-05T08:05:24.182Z,8.70
2018-07-05T08:06:26.434Z,8.80
2018-07-05T08:07:28.695Z,8.60
2018-07-05T08:08:30.978Z,8.30
2018-07-05T08:09:33.244Z,8.17
2018-07-05T08:10:35.511Z,7.87
2018-07-05T08:11:37.782Z,8.10
2018-07-05T08:12:40.033Z,7.37
2018-07-05T08:13:42.343Z,6.80
2018-07-05T08:14:44.619Z,7.90
2018-07-05T08:15:46.882Z,6.90
2018-07-05T08:16:49.152Z,7.77
2018-07-05T08:17:51.396Z,7.20
2018-07-05T08:18:53.638Z,7.90
2018-07-05T08:19:55.898Z,6.97
2018-07-05T08:20:58.191Z,7.20
2018-07-05T08:22:00.426Z,7.30
2018-07-05T08:23:02.741Z,6.57
2018-07-05T08:24:04.974Z,6.27
2018-07-05T08:25:07.217Z,6.50
2018-07-05T08:26:09.512Z,8.33
2018-07-05T08:27:11.756Z,7.00
2018-07-05T08:28:14.023Z,7.17
2018-07-05T08:29:16.272Z,6.17
2018-07-05T08:30:18.517Z,7.27
2018-07-05T08:31:20.848Z,7.60
2018-07-05T08:32:23.057Z,6.70
2018-07-05T08:33:25.327Z,7.63
2018-07-05T08:34:27.578Z,7.00
2018-07-05T08:35:29.882Z,6.67
2018-07-05T08:36:32.110Z,7.23
2018-07-05T08:37:34.369Z,6.93
2018-07-05T08:38:36.627Z,7.37
2018-07-05T08:39:38.908Z,7.73
2018-07-05T08:40:41.138Z,6.60
2018-07-05T08:41:43.408Z,7.30
2018-07-05T08:42:45.857Z,7.40
2018-07-05T08:43:48.094Z,6.90
2018-07-05T08:44:50.384Z,7.23
2018-07-05T08:45:52.614Z,7.37
2018-07-05T08:46:54.885Z,6.83
2018-07-05T08:47:57.148Z,7.10
2018-07-05T08:48:59.395Z,7.03
2018-07-05T08:50:01.707Z,7.57
2018-07-05T08:51:04.038Z,7.63
2018-07-05T08:52:06.264Z,7.10
2018-07-05T08:53:08.545Z,7.07
2018-07-05T08:54:10.803Z,6.67
2018-07-05T08:55:13.127Z,6.53
2018-07-05T08:56:15.390Z,7.40
2018-07-05T08:57:17.664Z,6.90
2018-07-05T08:58:20.387Z,6.87
2018-07-05T08:59:22.648Z,7.20
2018-07-05T09:00:24.920Z,7.90
2018-07-05T09:01:27.169Z,7.37
2018-07-05T09:02:29.436Z,7.10
2018-07-05T09:03:31.711Z,7.03
2018-07-05T09:04:34.288Z,7.83
2018-07-05T09:05:36.748Z,7.80
2018-07-05T09:06:39.017Z,7.50
2018-07-05T09:07:41.285Z,6.80
2018-07-05T09:08:43.532Z,6.97
2018-07-05T09:09:45.796Z,7.53
2018-07-05T09:10:48.074Z,7.10
2018-07-05T09:11:50.462Z,8.10
2018-07-05T09:12:52.840Z,7.50
2018-07-05T09:13:55.090Z,7.70
2018-07-05T09:14:57.336Z,7.17
2018-07-05T09:15:59.611Z,7.23
2018-07-05T09:17:01.870Z,7.13
2018-07-05T09:18:04.164Z,7.40
2018-07-05T09:19:06.424Z,7.53
2018-07-05T09:20:08.699Z,7.60
2018-07-05T09:21:10.974Z,7.77
2018-07-05T09:22:13.239Z,7.90
2018-07-05T09:23:15.525Z,6.83
2018-07-05T09:24:17.887Z,7.90
2018-07-05T09:25:20.299Z,7.80
2018-07-05T09:26:23.014Z,7.20
2018-07-05T09:27:25.266Z,7.47
2018-07-05T09:28:27.544Z,7.70
2018-07-05T09:29:30.182Z,8.27
2018-07-05T09:30:32.416Z,7.60
2018-07-05T09:31:34.680Z,7.77
2018-07-05T09:32:36.928Z,7.73
2018-07-05T09:33:39.204Z,8.17
2018-07-05T09:34:41.496Z,8.13
2018-07-05T09:35:43.752Z,8.43
2018-07-05T09:36:46.012Z,7.70
2018-07-05T09:37:48.250Z,8.13
2018-07-05T09:38:50.516Z,8.23
2018-07-05T09:39:52.799Z,8.10
2018-07-05T09:40:55.045Z,8.50
2018-07-05T09:41:57.311Z,7.70
2018-07-05T09:42:59.621Z,7.50
2018-07-05T09:44:01.911Z,7.60
2018-07-05T09:45:04.154Z,7.37
2018-07-05T09:46:06.508Z,7.10
2018-07-05T09:47:08.752Z,8.30
2018-07-05T09:48:10.994Z,8.57
2018-07-05T09:49:13.276Z,7.23
2018-07-05T09:50:15.925Z,7.53
2018-07-05T09:51:18.172Z,6.83
2018-07-05T09:52:20.425Z,7.13
2018-07-05T09:53:22.690Z,7.63
2018-07-05T09:54:24.957Z,7.40
2018-07-05T09:55:27.204Z,7.53
2018-07-05T09:56:29.456Z,7.10
2018-07-05T09:57:31.858Z,8.37
2018-07-05T09:58:34.113Z,9.20
2018-07-05T09:59:36.384Z,9.33
2018-07-05T10:00:44.090Z,8.30
2018-07-05T10:01:46.355Z,7.87
2018-07-05T10:02:48.605Z,8.50
2018-07-05T10:03:50.945Z,8.17
2018-07-05T10:04:53.194Z,9.13
2018-07-05T10:05:55.438Z,7.80
2018-07-05T10:06:57.675Z,8.50
2018-07-05T10:07:59.943Z,7.80
2018-07-05T10:09:02.208Z,7.80
2018-07-05T10:10:04.476Z,7.67
2018-07-05T10:11:06.753Z,8.40
2018-07-05T10:12:09.005Z,7.77
2018-07-05T10:13:11.774Z,7.43
2018-07-05T10:14:13.992Z,7.97
2018-07-05T10:15:16.258Z,8.57
2018-07-05T10:16:18.516Z,7.20
2018-07-05T10:17:20.874Z,7.80
2018-07-05T10:18:23.124Z,7.97
2018-07-05T10:19:25.430Z,8.60
2018-07-05T10:20:27.660Z,8.20
2018-07-05T10:21:29.909Z,7.50
2018-07-05T10:22:32.164Z,8.40
2018-07-05T10:23:34.441Z,7.80
2018-07-05T10:24:36.719Z,8.30
2018-07-05T10:25:38.988Z,7.87
2018-07-05T10:26:41.280Z,8.37
2018-07-05T10:27:43.525Z,8.27
2018-07-05T10:28:58.256Z,7.70
2018-07-05T10:30:12.894Z,9.97
2018-07-05T10:31:27.431Z,11.20
2018-07-05T10:32:42.260Z,11.40
2018-07-05T10:33:50.736Z,10.30
2018-07-05T10:34:53.914Z,10.73
2018-07-05T10:35:56.289Z,9.97
2018-07-05T10:36:58.527Z,9.90
2018-07-05T10:38:02.164Z,9.07
2018-07-05T10:39:05.057Z,10.03
2018-07-05T10:40:19.791Z,10.87
2018-07-05T10:41:34.603Z,10.10
2018-07-05T10:42:49.202Z,10.10
2018-07-05T10:44:03.985Z,10.23
2018-07-05T10:45:18.651Z,10.70
2018-07-05T10:46:33.351Z,10.33
2018-07-05T10:47:48.126Z,10.50
2018-07-05T10:49:02.912Z,10.20
2018-07-05T10:50:17.512Z,10.07
2018-07-05T10:51:32.316Z,11.10
2018-07-05T10:52:47.984Z,10.50
2018-07-05T10:54:03.116Z,10.23
2018-07-05T10:55:18.016Z,10.00
2018-07-05T10:56:32.810Z,12.00
2018-07-05T10:57:47.534Z,12.20
2018-07-05T10:59:02.304Z,12.80
2018-07-05T11:00:17.139Z,11.30
2018-07-05T11:01:31.650Z,10.70
2018-07-05T11:02:46.224Z,10.57
2018-07-05T11:04:00.993Z,10.50
2018-07-05T11:05:15.575Z,9.60
2018-07-05T11:06:30.334Z,11.10
2018-07-05T11:07:45.238Z,11.90
2018-07-05T11:08:59.945Z,10.27
2018-07-05T11:10:14.731Z,11.47
2018-07-05T11:11:29.553Z,11.70
2018-07-05T11:12:44.314Z,10.70
2018-07-05T11:13:59.122Z,11.97
2018-07-05T11:15:13.751Z,12.90
2018-07-05T11:16:28.405Z,12.47
2018-07-05T11:17:43.165Z,10.93
2018-07-05T11:18:58.044Z,10.17
2018-07-05T11:20:12.780Z,10.77
2018-07-05T11:21:27.546Z,10.63
2018-07-05T11:22:42.269Z,11.27
2018-07-05T11:23:56.986Z,11.90
2018-07-05T11:25:11.718Z,9.97
2018-07-05T11:26:26.552Z,13.60
2018-07-05T11:27:41.284Z,13.20
2018-07-05T11:28:56.072Z,13.60
2018-07-05T11:30:10.792Z,13.80
2018-07-05T11:31:25.402Z,11.17
2018-07-05T11:32:40.310Z,12.13
2018-07-05T11:33:55.080Z,12.60
2018-07-05T11:35:09.764Z,11.80
2018-07-05T11:36:24.585Z,10.60
2018-07-05T11:37:39.416Z,9.47
2018-07-05T11:38:54.131Z,11.53
2018-07-05T11:40:08.968Z,11.40
2018-07-05T11:41:23.748Z,10.87
2018-07-05T11:42:38.435Z,10.40
2018-07-05T11:43:53.077Z,11.00
2018-07-05T11:45:07.936Z,10.80
2018-07-05T11:46:22.633Z,12.07
2018-07-05T11:47:37.511Z,10.83
2018-07-05T11:48:52.372Z,10.33
2018-07-05T11:50:07.191Z,9.60
2018-07-05T11:51:21.959Z,10.60
2018-07-05T11:52:36.584Z,10.53
2018-07-05T11:53:51.376Z,10.40
2018-07-05T11:55:06.148Z,11.30
2018-07-05T11:56:20.921Z,10.00
2018-07-05T11:57:35.695Z,10.80
2018-07-05T11:58:50.540Z,10.60
2018-07-05T12:00:05.279Z,10.67
2018-07-05T12:01:20.086Z,10.70
2018-07-05T12:02:34.920Z,11.10
2018-07-05T12:03:49.689Z,11.27
2018-07-05T12:05:04.471Z,10.20
2018-07-05T12:06:19.195Z,11.10
2018-07-05T12:07:33.968Z,10.13
2018-07-05T12:08:48.868Z,11.00
2018-07-05T12:10:03.739Z,10.37
2018-07-05T12:11:18.402Z,10.50
2018-07-05T12:12:33.248Z,9.70
2018-07-05T12:13:48.096Z,10.60
2018-07-05T12:15:03.221Z,10.20
2018-07-05T12:16:17.822Z,9.03
2018-07-05T12:17:32.640Z,9.50
2018-07-05T12:18:47.416Z,9.60
2018-07-05T12:20:02.179Z,9.63
2018-07-05T12:21:16.903Z,9.80
2018-07-05T12:22:31.765Z,9.57
2018-07-05T12:23:46.586Z,9.40
2018-07-05T12:25:01.372Z,9.67
2018-07-05T12:26:16.243Z,9.10
2018-07-05T12:27:30.825Z,9.53
2018-07-05T12:28:45.560Z,10.53
2018-07-05T12:30:00.171Z,9.40
2018-07-05T12:31:15.023Z,9.67
2018-07-05T12:32:29.848Z,8.83
2018-07-05T12:33:44.680Z,9.30
2018-07-05T12:34:59.446Z,9.00
2018-07-05T12:36:14.213Z,9.20
2018-07-05T12:37:28.977Z,9.10
2018-07-05T12:38:43.712Z,8.47
2018-07-05T12:39:58.552Z,9.40
2018-07-05T12:41:13.306Z,9.30
2018-07-05T12:42:27.909Z,8.67
2018-07-05T12:43:42.422Z,8.77
2018-07-05T12:44:57.217Z,8.40
2018-07-05T12:46:12.003Z,8.90
2018-07-05T12:47:26.756Z,10.30
2018-07-05T12:48:41.575Z,9.03
2018-07-05T12:49:56.379Z,8.83
2018-07-05T12:51:11.170Z,9.30
2018-07-05T12:52:26.009Z,9.03
2018-07-05T12:53:40.795Z,9.40
2018-07-05T12:54:55.612Z,9.43
2018-07-05T12:56:10.183Z,8.87
2018-07-05T12:57:24.962Z,8.57
2018-07-05T12:58:39.861Z,9.00
2018-07-05T12:59:54.726Z,8.33
2018-07-05T13:01:09.559Z,8.07
2018-07-05T13:02:24.319Z,9.50
2018-07-05T13:03:39.184Z,8.80
2018-07-05T13:04:54.124Z,8.60
2018-07-05T13:06:08.811Z,9.00
2018-07-05T13:07:23.586Z,8.87
2018-07-05T13:08:38.315Z,8.40
2018-07-05T13:09:53.149Z,8.23
2018-07-05T13:11:07.833Z,8.23
2018-07-05T13:12:22.669Z,9.23
2018-07-05T13:13:37.445Z,8.57
2018-07-05T13:14:52.231Z,8.93
2018-07-05T13:16:06.948Z,8.77
2018-07-05T13:17:21.623Z,8.57
2018-07-05T13:18:36.320Z,9.47
2018-07-05T13:19:51.201Z,8.60
2018-07-05T13:21:05.914Z,8.63
2018-07-05T13:22:20.656Z,8.50
2018-07-05T13:23:35.419Z,9.20
2018-07-05T13:24:50.283Z,8.60
2018-07-05T13:26:05.116Z,9.20
2018-07-05T13:27:19.706Z,8.43
2018-07-05T13:28:34.438Z,8.83
2018-07-05T13:29:49.186Z,8.63
2018-07-05T13:31:03.875Z,8.03
2018-07-05T13:32:18.589Z,8.37
2018-07-05T13:33:33.348Z,8.10
2018-07-05T13:34:48.252Z,8.70
2018-07-05T13:36:03.087Z,8.07
2018-07-05T13:37:17.900Z,7.53
2018-07-05T13:38:32.827Z,7.20
2018-07-05T13:39:47.597Z,8.07
2018-07-05T13:41:02.458Z,7.70
2018-07-05T13:42:17.146Z,7.10
2018-07-05T13:43:32.003Z,7.20
2018-07-05T13:44:46.708Z,6.47
2018-07-05T13:46:01.896Z,6.27
2018-07-05T13:47:16.611Z,7.10
2018-07-05T13:48:31.216Z,7.37
2018-07-05T13:49:45.985Z,6.23
2018-07-05T13:51:01.004Z,6.37
2018-07-05T13:52:15.984Z,6.60
2018-07-05T13:53:30.805Z,7.27
2018-07-05T13:54:45.760Z,5.97
2018-07-05T13:56:00.633Z,7.03
2018-07-05T13:57:15.347Z,6.40
2018-07-05T13:58:30.301Z,6.27
2018-07-05T13:59:44.979Z,6.63
2018-07-05T14:00:59.684Z,5.40
2018-07-05T14:02:14.471Z,6.67
2018-07-05T14:03:29.180Z,5.97
2018-07-05T14:04:44.156Z,6.53
2018-07-05T14:05:59.044Z,6.30
2018-07-05T14:07:13.747Z,6.00
2018-07-05T14:08:28.589Z,6.13
2018-07-05T14:09:43.380Z,6.10
2018-07-05T14:10:58.122Z,5.90
2018-07-05T14:12:13.060Z,5.90
2018-07-05T14:13:27.734Z,5.60
2018-07-05T14:14:42.466Z,5.67
2018-07-05T14:15:57.488Z,5.40
2018-07-05T14:17:12.292Z,5.80
2018-07-05T14:18:27.094Z,5.20
2018-07-05T14:19:41.960Z,5.40
2018-07-05T14:20:56.854Z,5.70
2018-07-05T14:22:11.574Z,5.87
2018-07-05T14:23:26.300Z,5.23
2018-07-05T14:24:40.997Z,5.20
2018-07-05T14:25:55.511Z,5.63
2018-07-05T14:27:10.784Z,5.10
2018-07-05T14:28:25.401Z,5.40
2018-07-05T14:29:40.193Z,4.93
2018-07-05T14:30:54.986Z,4.67
2018-07-05T14:32:09.872Z,5.50
2018-07-05T14:33:24.587Z,4.83
2018-07-05T14:34:39.497Z,4.53
2018-07-05T14:35:54.242Z,5.20
2018-07-05T14:37:09.024Z,5.70
2018-07-05T14:38:23.764Z,5.77
2018-07-05T14:39:38.698Z,4.77
2018-07-05T14:40:54.533Z,5.07
2018-07-05T14:42:09.248Z,5.60
2018-07-05T14:43:23.998Z,5.40
2018-07-05T14:44:38.619Z,4.97
2018-07-05T14:45:53.365Z,4.57
2018-07-05T14:47:08.179Z,4.90
2018-07-05T14:48:22.962Z,4.77
2018-07-05T14:49:37.738Z,5.23
2018-07-05T14:50:52.376Z,4.70
2018-07-05T14:52:07.198Z,5.73
2018-07-05T14:53:22.364Z,5.07
2018-07-05T14:54:37.206Z,4.90
2018-07-05T14:55:52.080Z,4.57
2018-07-05T14:57:06.946Z,5.20
2018-07-05T14:58:21.564Z,4.47
2018-07-05T14:59:36.252Z,4.73
2018-07-05T15:00:51.004Z,4.87
2018-07-05T15:02:05.867Z,4.50
2018-07-05T15:03:20.694Z,4.50
2018-07-05T15:04:35.416Z,4.90
2018-07-05T15:05:50.124Z,5.00
2018-07-05T15:07:04.876Z,5.17
2018-07-05T15:08:19.542Z,4.70
2018-07-05T15:09:34.113Z,5.07
2018-07-05T15:10:48.936Z,5.03
2018-07-05T15:12:03.829Z,4.80
2018-07-05T15:13:18.654Z,4.67
2018-07-05T15:14:33.429Z,4.33
2018-07-05T15:15:47.949Z,4.80
2018-07-05T15:17:02.694Z,4.90
2018-07-05T15:18:17.416Z,4.30
2018-07-05T15:19:32.320Z,4.03
2018-07-05T15:20:47.112Z,4.50
2018-07-05T15:22:01.839Z,4.40
2018-07-05T15:23:16.720Z,4.10
2018-07-05T15:24:31.494Z,4.43
2018-07-05T15:25:46.246Z,4.17
2018-07-05T15:27:01.012Z,4.67
2018-07-05T15:28:15.785Z,4.40
2018-07-05T15:29:30.455Z,4.20
2018-07-05T15:30:45.208Z,4.57
2018-07-05T15:32:00.045Z,4.27
2018-07-05T15:33:14.687Z,4.23
2018-07-05T15:34:29.408Z,4.70
2018-07-05T15:35:44.075Z,4.40
2018-07-05T15:36:58.946Z,4.30
2018-07-05T15:38:13.582Z,4.27
2018-07-05T15:39:28.270Z,4.30
2018-07-05T15:40:43.379Z,4.30
2018-07-05T15:41:58.063Z,4.47
2018-07-05T15:43:12.912Z,4.70
2018-07-05T15:44:27.821Z,4.53
2018-07-05T15:45:42.455Z,4.43
2018-07-05T15:46:57.280Z,4.17
2018-07-05T15:48:12.043Z,4.20
2018-07-05T15:49:26.570Z,3.90
2018-07-05T15:50:41.550Z,4.30
2018-07-05T15:51:56.384Z,4.10
2018-07-05T15:53:11.176Z,4.03
2018-07-05T15:54:25.863Z,4.20
2018-07-05T15:55:40.511Z,4.60
2018-07-05T15:56:55.336Z,4.00